航空気象通報

ウインドサーファーのための航空気象通報による風予報です。

9/30-10/1の航空気象通報(国内、海外)

2007年09月30日 18時38分56秒 | TAF
羽田空港
TAF RJTT 300847Z 301812 02010KT 8000 FEW010 SCT020 BKN030
TEMPO 1821 3000 RA BR FEW004 BKN005 BKN010
TEMPO 2124 4000 -RA BR FEW006 BKN008 BKN012
日本時間1日03-21時:020度から10ノットの風
、但し、03-09時、

那覇空港
TAF ROAH 300844Z 301812 08011KT 9999 FEW015 SCT020
日本時間1日03-21時:080度から11ノットの風


マウイのカフルイ空港
PHOG 301124Z 301212 VRB05KT P6SM FEW030 BKN050
FM2000 07014G22KT P6SM FEW035 SCT060
FM0600 07011KT P6SM SCT030 SCT060
ハワイ時間30日02-10時:風向不定5ノットの風

10-20時:070度から14ノット、突風22ノット
20時-1日02時:070度から11ノットの風


サイパン空港
PGSN 301137Z 301212 10009KT P6SM VCSH SCT020 BKN130
マリアナ時間30日22時-1日22時:100度から9ノットの風


グアム空港
TAFPQ TAF PGUM 301137Z 301212 10008KT P6SM VCSH SCT020 BKN130
マリアナ時間30日22時-1日22時:100度から8ノットの風

コメント

9/29-30の航空気象通報(国内、海外)

2007年09月29日 21時39分39秒 | TAF
羽田空港
TAF RJTT 290850Z 291812 01012KT 6000 -RA FEW008 BKN015 BKN020
BECMG 1821 4000 -RA BR FEW006 BKN008 BKN012
TEMPO 2103 3000 -RA BR
BECMG 0306 8000 -RA FEW008 BKN015 BKN020
TEMPO 0609 4000 RA BR FEW006 BKN008 BKN012
日本時間30日03-21時:010度から12ノットの風


那覇空港
TAF ROAH 290840Z 291812 08008KT 9999 FEW015 SCT020
日本時間30日03-21時:080度から8ノットの風


マウイのカフルイ空港
PHOG 291142Z 291212 14004KT P6SM SKC
FM1700 06010KT P6SM SCT045
FM1900 06018G25KT P6SM FEW035 SCT050
FM0500 06010KT P6SM FEW035 SCT050
FM1000 VRB05KT P6SM FEW050
ハワイ時間29日02-07時:140度から4ノットの風
07-09時:060度から10ノットの風
09-19時:060度から18ノット、突風25ノット
19-24時:060度から10ノットの風
30日00-02時:風向不定5ノットの風


サイパン空港
PGSN 291136Z 291212 07011KT P6SM VCSH SCT020 SCT120
マリアナ時間29日22時-30日22時:070度から11ノットの風


グアム空港
TAFPQ TAF PGUM 291136Z 291212 07011KT P6SM VCSH SCT020 SCT120
マリアナ時間29日22時-30日22時:070度から11ノットの風


コメント

9/28-29の航空気象通報(国内、海外)

2007年09月28日 21時50分36秒 | TAF
羽田空港
TAF RJTT 280844Z 281812 05014KT 8000 -RA FEW010 BKN015 BKN020
TEMPO 2103 4000 -RA BR FEW004 BKN008 BKN015
日本時間29日03-21時:050度から14ノットの風
、但し、06-12時:一時、

那覇空港
TAF ROAH 280841Z 281812 08006KT 9999 SCT020
日本時間29日03-21時:080度から6ノットの風


マウイのカフルイ空港
PHOG 281120Z 281212 05009KT P6SM BKN250
FM2000 04016G24KT P6SM FEW030 SCT050
FM0600 05010KT P6SM SCT030 BKN050
ハワイ時間28日02-10時:050度から9ノットの風、
10-20時:040度から16ノット、突風24ノット、
20時-29日02時:050度から10ノットの風、

サイパン空港
PGSN 281120Z 281212 07010KT P6SM VCSH SCT020 SCT040
マリアナ時間28日22時-29日22時:070度から10ノットの風


グアム空港
TAFPQ TAF PGUM 281120Z 281212 08010KT P6SM VCSH SCT020 SCT040
マリアナ時間28日22時-29日22時:080度から10ノットの風

コメント

9/27-28の航空気象通報(国内、海外)

2007年09月28日 00時06分23秒 | TAF
9/27-28の航空気象通報(国内、海外)

羽田空港
TAF RJTT 271440Z 280018 20020KT 9999 FEW020 SCT050
TEMPO 0009 20022G32KT
BECMG 0912 36016KT
TEMPO 0912 3000 SHRA FEW004 BKN008 BKN015
日本時間28日09-18時:200度から20ノットの風
但し、09-18時:ときどき100度から22ノット、突風32ノット
18-21時:風が変化
21時-29日03時:360度から16ノットの風
、但し、18-21時:一時、

那覇空港
TAF ROAH 271449Z 280018 07008KT 9999 FEW025
日本時間28日09時-29日03時:070度から8ノットの風


マウイのカフルイ空港
PHOG 271133Z 271212 04011KT P6SM FEW040
FM1900 05015G25KT P6SM FEW030 SCT050
FM0600 05010KT P6SM FEW040
ハワイ時間27日02-09時:040度から11ノットの風
09-20時:050度から15ノット、突風25ノット
20時-28日02時:050度から10ノットの風


サイパン空港
PGSN 271120Z 271212 16003KT P6SM VCSH SCT022 SCT120
TEMPO 1216 SCT012 BKN030 BKN050
マリアナ時間27日22時-28日22時:160度から3ノットの風
、但し、27日22時-28日02時:一時、

グアム空港
PGSN 271120Z 271212 16003KT P6SM VCSH SCT022 SCT120
TEMPO 1216 SCT012 BKN030 BKN050
マリアナ時間27日22時-28日22時:160度から3ノットの風
、但し、27日22時-28日02時:一時、

コメント

9/26-27の航空気象通報(国内、海外)

2007年09月26日 23時50分02秒 | TAF
羽田空港
TAF RJTT 260841Z 261812 02006KT 8000 FEW020 SCT030 BKN050
BECMG 0003 16012KT
TEMPO 0309 4000 SHRA
日本時間27日03-09時:020度から6ノットの風
09-12時:風が変化
12-21時:160度から12ノットの風
、12-18時:一時、

那覇空港
TAF ROAH 260840Z 261812 08007KT 9999 FEW020 SCT030
BECMG 0003 10008KT
日本時間27日03-09時:080度から7ノットの風
09-12時:風が変化
12-21時:100度から8ノットの風


マウイのカフルイ空港
PHOG 261136Z 261212 06010KT P6SM FEW040
FM2000 05015G25KT P6SM SCT040
FM0600 05010KT P6SM FEW040
ハワイ時間26日02-10時:060度から10ノットの風
10-20時:050度から15ノット、突風25ノット
20時-27日02時:050度から10ノットの風


サイパン空港PGSN 261138Z 261212 13014KT P6SM VCSH SCT020 BKN150
TEMPO 1215 13016G28KT 4SM SHRA SCT015CB BKN025 BKN040
マリアナ時間26日22時-27日22時:130度から14ノットの風
但し、26日22時-27日02時:一時、130度から16ノット、突風28ノット


グアム空港
TAFPQ TAF PGUM 261138Z 261212 13014KT P6SM VCSH SCT020 BKN150
TEMPO 1620 13016G28KT 3SM +SHRA SCT015CB BKN025 BKN040
マリアナ時間26日22時-27日22時:130度から14ノットの風
但し、27日02-06時:一時、130度から16ノット、突風28ノット

コメント